Aérodrome :
LOGIN :

S'inscrire | Disclaimer

   EN    FR    IT 

 










Légende :    VFR   VFR Marginal   IFR   IFR Intensif   IFR Très Intensif
Visi : 
Plafond : 
>= 8 km
>= 3000ft
5 à 8 km
1000 à 3000 ft
1500m à 5 km
500 à 1000 ft
800 à 1500m
200 à 500 ft
< 800m
< 200 ft
Symboles :   Orages  Brouillard  Fortes neiges  Fortes précipitations  Vent > 20 kt
SIGMETs :   Divers  Orages  Givrage  Turbulence  Onde Orograph.  Cendres Volcan.






- Altitude de l'aérodrome : 288 ft
- Code IATA : BZZ


EGVN - RAF Brize Norton

DERNIER METAR :
  • 250350Z AUTO 23002KT 9999 OVC015/// 06/04 Q1019

METARs EXPIRÉS :
  • 250250Z 21002KT 4000 HZ OVC018 06/04 Q1019 NOSIG RMK GRN GRN
  • 250220Z 23002KT 4500 HZ OVC018 06/04 Q1019 NOSIG RMK GRN GRN
  • 250150Z 23002KT 5000 HZ OVC020 06/05 Q1020 BECMG 4000 BR RMK WHT BECMG GRN
  • 250120Z 24001KT 5000 HZ OVC020 06/05 Q1020 BECMG 4000 BR RMK WHT BECMG GRN

TAF TAF EGVN
Valide du 25 à 03h jusqu'au 26 à 03h UTC


250127Z 2503/2603 VRB04KT 6000 HZ BKN020
PROB40 2503/2508 4000 BR BKN010
BECMG 2510/2513 9999 NSW BKN010
TEMPO 2513/2603 3000 -DZ BKN005



MET'MAP, la Météo Aéronautique d'un coup d'oeil ! - Copyright ORBIFLY Décembre 2007 - Disclaimer

ORBIFLY MET'MAP TEAM :

Programmation & Développement : Alexandra Zaïnal
Sur une idée originale de : Baudouin d'Aumeries
Assistance à la programmation : Marc-Olivier Méhu
Soutien technique & logistique : Manuel Goepfert

Contact : metmap@orbifly.com




SOURCES & CREDITS :

   NOAA